createdAt,value
2022-12-01T00:03:09.550Z,15.30
2022-12-01T00:08:30.897Z,17.55
2022-12-01T00:13:51.275Z,17.50
2022-12-01T00:19:11.770Z,17.15
2022-12-01T00:24:32.082Z,17.75
2022-12-01T00:29:52.609Z,18.63
2022-12-01T00:35:14.378Z,17.30
2022-12-01T00:40:34.921Z,15.68
2022-12-01T00:45:59.283Z,16.52
2022-12-01T00:51:19.755Z,16.77
2022-12-01T00:56:40.561Z,16.80
2022-12-01T01:02:02.496Z,13.55
2022-12-01T01:07:23.402Z,15.10
2022-12-01T01:12:44.024Z,15.73
2022-12-01T01:18:06.241Z,16.33
2022-12-01T01:23:27.108Z,14.57
2022-12-01T01:28:48.243Z,16.42
2022-12-01T01:34:08.920Z,16.05
2022-12-01T01:39:29.372Z,15.20
2022-12-01T01:44:56.842Z,15.57
2022-12-01T01:50:20.638Z,15.93
2022-12-01T01:55:40.958Z,15.23
2022-12-01T02:01:02.134Z,14.90
2022-12-01T02:06:23.884Z,15.88
2022-12-01T02:12:03.323Z,15.80
2022-12-01T02:17:41.855Z,14.18
2022-12-01T02:23:05.536Z,14.82
2022-12-01T02:28:52.664Z,15.57
2022-12-01T02:34:21.835Z,15.77
2022-12-01T02:39:55.526Z,15.82
2022-12-01T02:46:02.877Z,13.95
2022-12-01T02:51:29.092Z,14.25
2022-12-01T02:56:53.762Z,13.82
2022-12-01T03:02:42.164Z,11.47
2022-12-01T03:08:26.789Z,14.93
2022-12-01T03:14:27.059Z,15.45
2022-12-01T03:20:00.853Z,15.73
2022-12-01T03:25:26.283Z,16.37
2022-12-01T03:30:50.998Z,15.23
2022-12-01T03:36:35.212Z,13.95
2022-12-01T03:42:04.887Z,16.63
2022-12-01T03:47:32.115Z,14.95
2022-12-01T03:53:22.139Z,15.23
2022-12-01T03:58:47.244Z,15.35
2022-12-01T04:04:11.441Z,14.90
2022-12-01T04:09:31.978Z,14.38
2022-12-01T04:14:52.463Z,15.48
2022-12-01T04:20:14.957Z,16.02
2022-12-01T04:25:36.449Z,14.73
2022-12-01T04:30:57.009Z,13.70
2022-12-01T04:36:17.631Z,14.82
2022-12-01T04:41:38.077Z,15.20
2022-12-01T04:46:58.840Z,14.93
2022-12-01T04:52:19.382Z,15.13
2022-12-01T04:57:41.394Z,15.52
2022-12-01T05:03:01.890Z,14.85
2022-12-01T05:08:22.583Z,15.35
2022-12-01T05:13:45.407Z,13.73
2022-12-01T05:19:25.088Z,13.20
2022-12-01T05:24:45.695Z,14.50
2022-12-01T05:30:07.020Z,15.10
2022-12-01T05:35:27.484Z,16.85
2022-12-01T05:40:55.951Z,15.70
2022-12-01T05:46:16.727Z,13.52
2022-12-01T05:51:37.495Z,14.57
2022-12-01T05:56:58.038Z,15.27
2022-12-01T06:02:18.454Z,14.35
2022-12-01T06:07:40.300Z,14.80
2022-12-01T06:13:01.089Z,14.18
2022-12-01T06:18:21.939Z,16.20
2022-12-01T06:23:42.535Z,14.98
2022-12-01T06:29:02.947Z,14.68
2022-12-01T06:34:23.678Z,14.35
2022-12-01T06:39:44.383Z,16.02
2022-12-01T06:45:05.439Z,16.95
2022-12-01T06:50:26.314Z,15.77
2022-12-01T06:55:47.183Z,15.63
2022-12-01T07:01:09.919Z,16.13
2022-12-01T07:06:31.931Z,14.90
2022-12-01T07:11:52.524Z,15.63
2022-12-01T07:17:12.918Z,16.48
2022-12-01T07:22:33.808Z,15.00
2022-12-01T07:27:54.281Z,15.48
2022-12-01T07:33:15.369Z,15.38
2022-12-01T07:38:38.324Z,15.07
2022-12-01T07:43:59.068Z,15.05
2022-12-01T07:49:19.762Z,16.73
2022-12-01T07:54:40.655Z,14.50
2022-12-01T08:00:01.484Z,16.08
2022-12-01T08:05:32.334Z,16.05
2022-12-01T08:10:53.658Z,14.48
2022-12-01T08:16:16.339Z,13.75
2022-12-01T08:21:37.539Z,13.95
2022-12-01T08:26:58.360Z,13.65
2022-12-01T08:32:18.874Z,13.35
2022-12-01T08:37:39.408Z,14.20
2022-12-01T08:43:00.008Z,14.00
2022-12-01T08:48:20.709Z,13.60
2022-12-01T08:53:45.942Z,14.43
2022-12-01T08:59:06.851Z,14.95
2022-12-01T09:04:27.980Z,13.93
2022-12-01T09:09:48.457Z,14.90
2022-12-01T09:15:09.903Z,13.50
2022-12-01T09:20:30.402Z,13.70
2022-12-01T09:25:52.507Z,12.80
2022-12-01T09:31:14.339Z,14.70
2022-12-01T09:36:36.701Z,13.43
2022-12-01T09:42:09.270Z,13.55
2022-12-01T09:47:37.690Z,12.82
2022-12-01T09:53:05.971Z,14.35
2022-12-01T09:58:30.756Z,14.65
2022-12-01T10:03:57.310Z,13.40
2022-12-01T10:09:32.983Z,12.15
2022-12-01T10:15:00.735Z,10.88
2022-12-01T10:20:33.628Z,12.25
2022-12-01T10:26:09.726Z,13.57
2022-12-01T10:31:54.223Z,11.07
2022-12-01T10:37:20.172Z,11.67
2022-12-01T10:42:45.962Z,11.52
2022-12-01T10:48:10.864Z,11.90
2022-12-01T10:53:33.715Z,11.10
2022-12-01T10:58:57.336Z,11.82
2022-12-01T11:04:45.255Z,12.70
2022-12-01T11:10:20.847Z,13.50
2022-12-01T11:15:51.834Z,13.77
2022-12-01T11:21:26.392Z,13.23
2022-12-01T11:26:46.735Z,13.63
2022-12-01T11:32:18.786Z,12.48
2022-12-01T11:37:54.899Z,12.70
2022-12-01T11:43:35.004Z,12.90
2022-12-01T11:48:59.818Z,13.00
2022-12-01T11:54:25.996Z,12.32
2022-12-01T11:59:47.046Z,12.98
2022-12-01T12:05:49.088Z,13.43
2022-12-01T12:11:25.159Z,14.65
2022-12-01T12:16:55.606Z,13.02
2022-12-01T12:22:35.165Z,13.43
2022-12-01T12:28:17.112Z,13.93
2022-12-01T12:34:25.335Z,14.20
2022-12-01T12:40:09.487Z,15.65
2022-12-01T12:45:53.955Z,13.65
2022-12-01T12:51:24.939Z,16.67
2022-12-01T12:56:49.479Z,16.35
2022-12-01T13:02:20.012Z,14.65
2022-12-01T13:08:19.273Z,15.70
2022-12-01T13:13:54.646Z,15.77
2022-12-01T13:19:21.354Z,15.63
2022-12-01T13:24:42.420Z,15.15
2022-12-01T13:30:04.054Z,14.32
2022-12-01T13:35:39.691Z,13.80
2022-12-01T13:41:39.484Z,13.00
2022-12-01T13:47:21.214Z,13.93
2022-12-01T13:52:49.583Z,14.98
2022-12-01T13:58:14.064Z,14.50
2022-12-01T14:03:40.303Z,13.48
2022-12-01T14:09:05.059Z,13.80
2022-12-01T14:14:28.346Z,13.48
2022-12-01T14:19:53.999Z,16.55
2022-12-01T14:25:20.636Z,14.82
2022-12-01T14:30:45.727Z,13.05
2022-12-01T14:36:19.402Z,13.30
2022-12-01T14:41:47.599Z,13.27
2022-12-01T14:47:10.933Z,15.63
2022-12-01T14:52:42.217Z,15.00
2022-12-01T14:58:11.746Z,14.45
2022-12-01T15:03:36.973Z,13.15
2022-12-01T15:09:33.456Z,12.30
2022-12-01T15:14:54.746Z,12.32
2022-12-01T15:20:31.418Z,12.50
2022-12-01T15:25:52.103Z,13.10
2022-12-01T15:31:13.734Z,11.75
2022-12-01T15:36:37.597Z,14.27
2022-12-01T15:41:58.767Z,15.20
2022-12-01T15:47:43.010Z,13.07
2022-12-01T15:53:17.521Z,12.30
2022-12-01T15:58:45.174Z,13.70
2022-12-01T16:04:14.492Z,11.32
2022-12-01T16:09:43.318Z,12.20
2022-12-01T16:15:10.061Z,13.13
2022-12-01T16:20:39.219Z,13.25
2022-12-01T16:26:02.140Z,13.23
2022-12-01T16:31:25.763Z,13.15
2022-12-01T16:36:46.890Z,12.80
2022-12-01T16:42:11.857Z,11.18
2022-12-01T16:47:32.407Z,11.65
2022-12-01T16:52:53.073Z,12.05
2022-12-01T16:58:14.192Z,12.02
2022-12-01T17:03:36.686Z,11.45
2022-12-01T17:08:56.945Z,10.38
2022-12-01T17:14:17.364Z,10.90
2022-12-01T17:19:37.579Z,9.77
2022-12-01T17:24:59.366Z,9.88
2022-12-01T17:30:19.992Z,10.57
2022-12-01T17:35:40.830Z,10.82
2022-12-01T17:41:07.794Z,11.38
2022-12-01T17:46:28.263Z,9.77
2022-12-01T17:51:48.836Z,12.00
2022-12-01T17:57:10.242Z,10.00
2022-12-01T18:02:30.861Z,11.35
2022-12-01T18:07:51.779Z,11.25
2022-12-01T18:13:12.101Z,10.75
2022-12-01T18:18:32.327Z,11.95
2022-12-01T18:23:58.891Z,9.88
2022-12-01T18:29:25.840Z,11.73
2022-12-01T18:34:46.810Z,11.63
2022-12-01T18:40:08.491Z,11.30
2022-12-01T18:45:28.832Z,10.65
2022-12-01T18:50:52.608Z,10.93
2022-12-01T18:56:15.762Z,11.73
2022-12-01T19:01:43.827Z,12.32
2022-12-01T19:07:04.657Z,13.05
2022-12-01T19:12:25.465Z,11.23
2022-12-01T19:17:46.072Z,12.60
2022-12-01T19:23:06.676Z,13.25
2022-12-01T19:28:28.366Z,13.73
2022-12-01T19:33:49.960Z,13.77
2022-12-01T19:39:11.234Z,12.52
2022-12-01T19:44:31.940Z,13.52
2022-12-01T19:49:52.302Z,13.15
2022-12-01T19:55:12.952Z,13.63
2022-12-01T20:00:33.769Z,14.55
2022-12-01T20:05:54.337Z,14.85
2022-12-01T20:11:15.451Z,13.85
2022-12-01T20:16:36.413Z,13.98
2022-12-01T20:21:57.027Z,15.18
2022-12-01T20:27:17.415Z,13.80
2022-12-01T20:32:38.450Z,16.17
2022-12-01T20:37:59.043Z,19.08
2022-12-01T20:43:19.931Z,18.95
2022-12-01T20:48:40.367Z,15.88
2022-12-01T20:59:42.614Z,17.58
2022-12-01T21:05:03.401Z,17.90
2022-12-01T21:10:23.709Z,17.98
2022-12-01T21:16:01.860Z,17.30
2022-12-01T21:29:19.501Z,19.25
2022-12-01T21:34:40.367Z,19.17
2022-12-01T21:40:00.777Z,19.02
2022-12-01T21:45:31.990Z,19.60
2022-12-01T21:51:11.626Z,18.95
2022-12-01T21:56:32.601Z,20.25
2022-12-01T22:01:56.605Z,22.40
2022-12-01T22:07:18.033Z,20.70
2022-12-01T22:12:38.370Z,23.50
2022-12-01T22:17:58.980Z,22.30
2022-12-01T22:23:20.568Z,20.58
2022-12-01T22:28:40.923Z,21.63
2022-12-01T22:34:03.551Z,22.70
2022-12-01T22:39:33.872Z,22.95
2022-12-01T22:44:54.658Z,21.52
2022-12-01T22:50:32.980Z,19.95
2022-12-01T22:55:55.609Z,19.40
2022-12-01T23:01:27.252Z,19.52
2022-12-01T23:06:52.897Z,21.17
2022-12-01T23:12:13.143Z,20.25
2022-12-01T23:17:35.623Z,19.55
2022-12-01T23:22:57.524Z,20.70
2022-12-01T23:28:19.033Z,19.15
2022-12-01T23:33:40.069Z,17.52
2022-12-01T23:39:04.351Z,17.17
2022-12-01T23:44:37.548Z,17.30
2022-12-01T23:50:06.718Z,16.02
2022-12-01T23:55:29.170Z,16.70
